sensor_id;sensor_type;location;lat;lon;timestamp;P1;durP1;ratioP1;P2;durP2;ratioP2
11203;SDS011;5659;49.408;11.116;2023-04-15T00:00:17;18.87;;;15.63;;
11203;SDS011;5659;49.408;11.116;2023-04-15T00:02:43;20.00;;;16.73;;
11203;SDS011;5659;49.408;11.116;2023-04-15T00:05:09;19.30;;;16.20;;
11203;SDS011;5659;49.408;11.116;2023-04-15T00:07:35;19.77;;;15.83;;
11203;SDS011;5659;49.408;11.116;2023-04-15T00:10:01;20.77;;;16.57;;
11203;SDS011;5659;49.408;11.116;2023-04-15T00:12:28;18.57;;;15.87;;
11203;SDS011;5659;49.408;11.116;2023-04-15T00:14:54;22.53;;;15.70;;
11203;SDS011;5659;49.408;11.116;2023-04-15T00:17:21;17.63;;;15.63;;
11203;SDS011;5659;49.408;11.116;2023-04-15T00:19:47;19.93;;;16.73;;
11203;SDS011;5659;49.408;11.116;2023-04-15T00:22:13;19.50;;;16.13;;
11203;SDS011;5659;49.408;11.116;2023-04-15T00:24:40;22.33;;;16.40;;
11203;SDS011;5659;49.408;11.116;2023-04-15T00:27:06;19.00;;;16.03;;
11203;SDS011;5659;49.408;11.116;2023-04-15T00:29:32;17.40;;;15.30;;
11203;SDS011;5659;49.408;11.116;2023-04-15T00:31:59;23.80;;;16.90;;
11203;SDS011;5659;49.408;11.116;2023-04-15T00:34:25;22.23;;;15.87;;
11203;SDS011;5659;49.408;11.116;2023-04-15T00:36:52;16.80;;;14.90;;
11203;SDS011;5659;49.408;11.116;2023-04-15T00:39:19;20.07;;;16.03;;
11203;SDS011;5659;49.408;11.116;2023-04-15T00:41:45;17.90;;;15.50;;
11203;SDS011;5659;49.408;11.116;2023-04-15T00:44:11;21.73;;;14.93;;
11203;SDS011;5659;49.408;11.116;2023-04-15T00:46:37;18.30;;;14.50;;
11203;SDS011;5659;49.408;11.116;2023-04-15T00:49:04;18.97;;;14.77;;
11203;SDS011;5659;49.408;11.116;2023-04-15T00:51:30;18.47;;;14.93;;
11203;SDS011;5659;49.408;11.116;2023-04-15T00:54:03;15.50;;;13.47;;
11203;SDS011;5659;49.408;11.116;2023-04-15T00:56:30;15.70;;;13.70;;
11203;SDS011;5659;49.408;11.116;2023-04-15T00:58:56;16.73;;;14.27;;
11203;SDS011;5659;49.408;11.116;2023-04-15T01:01:23;16.90;;;14.10;;
11203;SDS011;5659;49.408;11.116;2023-04-15T01:03:50;17.40;;;13.13;;
11203;SDS011;5659;49.408;11.116;2023-04-15T01:06:16;17.90;;;12.90;;
11203;SDS011;5659;49.408;11.116;2023-04-15T01:08:42;14.00;;;12.17;;
11203;SDS011;5659;49.408;11.116;2023-04-15T01:11:09;16.37;;;13.27;;
11203;SDS011;5659;49.408;11.116;2023-04-15T01:13:35;14.30;;;12.50;;
11203;SDS011;5659;49.408;11.116;2023-04-15T01:16:01;14.83;;;12.57;;
11203;SDS011;5659;49.408;11.116;2023-04-15T01:18:28;14.50;;;12.13;;
11203;SDS011;5659;49.408;11.116;2023-04-15T01:20:54;15.97;;;12.00;;
11203;SDS011;5659;49.408;11.116;2023-04-15T01:23:20;14.93;;;11.83;;
11203;SDS011;5659;49.408;11.116;2023-04-15T01:25:48;16.93;;;12.00;;
11203;SDS011;5659;49.408;11.116;2023-04-15T01:28:14;15.33;;;11.73;;
11203;SDS011;5659;49.408;11.116;2023-04-15T01:30:40;14.57;;;11.50;;
11203;SDS011;5659;49.408;11.116;2023-04-15T01:33:06;13.27;;;11.30;;
11203;SDS011;5659;49.408;11.116;2023-04-15T01:35:32;12.53;;;11.23;;
11203;SDS011;5659;49.408;11.116;2023-04-15T01:38:05;13.40;;;10.87;;
11203;SDS011;5659;49.408;11.116;2023-04-15T01:40:32;14.70;;;11.30;;
11203;SDS011;5659;49.408;11.116;2023-04-15T01:42:58;14.20;;;11.40;;
11203;SDS011;5659;49.408;11.116;2023-04-15T01:45:24;12.10;;;10.73;;
11203;SDS011;5659;49.408;11.116;2023-04-15T01:47:50;11.97;;;10.77;;
11203;SDS011;5659;49.408;11.116;2023-04-15T01:50:16;15.03;;;11.17;;
11203;SDS011;5659;49.408;11.116;2023-04-15T01:52:43;16.17;;;11.20;;
11203;SDS011;5659;49.408;11.116;2023-04-15T01:55:09;15.53;;;12.07;;
11203;SDS011;5659;49.408;11.116;2023-04-15T01:57:35;15.00;;;11.13;;
11203;SDS011;5659;49.408;11.116;2023-04-15T02:00:01;15.47;;;11.10;;
11203;SDS011;5659;49.408;11.116;2023-04-15T02:02:27;15.33;;;11.67;;
11203;SDS011;5659;49.408;11.116;2023-04-15T02:04:53;14.83;;;11.27;;
11203;SDS011;5659;49.408;11.116;2023-04-15T02:07:19;17.57;;;11.83;;
11203;SDS011;5659;49.408;11.116;2023-04-15T02:09:45;15.80;;;11.57;;
11203;SDS011;5659;49.408;11.116;2023-04-15T02:12:11;12.40;;;10.90;;
11203;SDS011;5659;49.408;11.116;2023-04-15T02:14:37;16.07;;;10.67;;
11203;SDS011;5659;49.408;11.116;2023-04-15T02:17:04;14.03;;;11.43;;
11203;SDS011;5659;49.408;11.116;2023-04-15T02:19:33;15.43;;;10.60;;
11203;SDS011;5659;49.408;11.116;2023-04-15T02:21:59;13.33;;;10.17;;
11203;SDS011;5659;49.408;11.116;2023-04-15T02:24:29;13.30;;;10.60;;
11203;SDS011;5659;49.408;11.116;2023-04-15T02:26:55;11.57;;;10.37;;
11203;SDS011;5659;49.408;11.116;2023-04-15T02:29:21;14.60;;;10.37;;
11203;SDS011;5659;49.408;11.116;2023-04-15T02:31:47;15.63;;;10.03;;
11203;SDS011;5659;49.408;11.116;2023-04-15T02:34:13;11.13;;;9.33;;
11203;SDS011;5659;49.408;11.116;2023-04-15T02:36:39;11.37;;;9.37;;
11203;SDS011;5659;49.408;11.116;2023-04-15T02:39:05;10.83;;;9.33;;
11203;SDS011;5659;49.408;11.116;2023-04-15T02:41:31;11.37;;;9.03;;
11203;SDS011;5659;49.408;11.116;2023-04-15T02:43:57;11.37;;;9.77;;
11203;SDS011;5659;49.408;11.116;2023-04-15T02:46:23;13.30;;;9.37;;
11203;SDS011;5659;49.408;11.116;2023-04-15T02:48:50;12.97;;;8.97;;
11203;SDS011;5659;49.408;11.116;2023-04-15T02:51:18;13.27;;;9.40;;
11203;SDS011;5659;49.408;11.116;2023-04-15T02:53:44;9.93;;;8.70;;
11203;SDS011;5659;49.408;11.116;2023-04-15T02:56:11;13.27;;;9.57;;
11203;SDS011;5659;49.408;11.116;2023-04-15T02:58:39;13.57;;;9.17;;
11203;SDS011;5659;49.408;11.116;2023-04-15T03:01:05;14.57;;;9.37;;
11203;SDS011;5659;49.408;11.116;2023-04-15T03:03:32;12.87;;;9.20;;
11203;SDS011;5659;49.408;11.116;2023-04-15T03:05:58;10.87;;;9.73;;
11203;SDS011;5659;49.408;11.116;2023-04-15T03:08:24;12.13;;;9.57;;
11203;SDS011;5659;49.408;11.116;2023-04-15T03:10:50;11.60;;;9.23;;
11203;SDS011;5659;49.408;11.116;2023-04-15T03:13:17;17.27;;;9.20;;
11203;SDS011;5659;49.408;11.116;2023-04-15T03:15:45;14.87;;;9.10;;
11203;SDS011;5659;49.408;11.116;2023-04-15T03:18:11;12.97;;;9.27;;
11203;SDS011;5659;49.408;11.116;2023-04-15T03:20:37;11.70;;;9.07;;
11203;SDS011;5659;49.408;11.116;2023-04-15T03:23:03;12.27;;;8.33;;
11203;SDS011;5659;49.408;11.116;2023-04-15T03:25:29;12.17;;;9.50;;
11203;SDS011;5659;49.408;11.116;2023-04-15T03:27:55;13.03;;;9.40;;
11203;SDS011;5659;49.408;11.116;2023-04-15T03:30:21;11.63;;;8.60;;
11203;SDS011;5659;49.408;11.116;2023-04-15T03:32:47;11.00;;;9.37;;
11203;SDS011;5659;49.408;11.116;2023-04-15T03:35:13;11.47;;;8.57;;
11203;SDS011;5659;49.408;11.116;2023-04-15T03:37:39;12.33;;;9.20;;
11203;SDS011;5659;49.408;11.116;2023-04-15T03:40:06;10.27;;;8.90;;
11203;SDS011;5659;49.408;11.116;2023-04-15T03:42:32;15.77;;;8.73;;
11203;SDS011;5659;49.408;11.116;2023-04-15T03:44:58;10.87;;;8.33;;
11203;SDS011;5659;49.408;11.116;2023-04-15T03:47:24;11.33;;;8.53;;
11203;SDS011;5659;49.408;11.116;2023-04-15T03:49:50;9.63;;;8.63;;
11203;SDS011;5659;49.408;11.116;2023-04-15T03:52:16;11.63;;;8.37;;
11203;SDS011;5659;49.408;11.116;2023-04-15T03:54:42;10.47;;;8.70;;
11203;SDS011;5659;49.408;11.116;2023-04-15T03:57:08;10.13;;;8.70;;
11203;SDS011;5659;49.408;11.116;2023-04-15T03:59:35;10.63;;;9.00;;
11203;SDS011;5659;49.408;11.116;2023-04-15T04:02:01;12.67;;;9.20;;
11203;SDS011;5659;49.408;11.116;2023-04-15T04:04:27;12.40;;;8.70;;
11203;SDS011;5659;49.408;11.116;2023-04-15T04:06:53;12.13;;;9.20;;
11203;SDS011;5659;49.408;11.116;2023-04-15T04:09:19;11.60;;;8.93;;
11203;SDS011;5659;49.408;11.116;2023-04-15T04:11:45;11.00;;;9.27;;
11203;SDS011;5659;49.408;11.116;2023-04-15T04:14:11;10.43;;;8.90;;
11203;SDS011;5659;49.408;11.116;2023-04-15T04:16:37;12.73;;;8.83;;
11203;SDS011;5659;49.408;11.116;2023-04-15T04:19:03;10.73;;;8.63;;
11203;SDS011;5659;49.408;11.116;2023-04-15T04:21:29;9.47;;;8.47;;
11203;SDS011;5659;49.408;11.116;2023-04-15T04:23:58;11.37;;;8.90;;
11203;SDS011;5659;49.408;11.116;2023-04-15T04:26:23;12.30;;;9.07;;
11203;SDS011;5659;49.408;11.116;2023-04-15T04:28:50;9.53;;;8.30;;
11203;SDS011;5659;49.408;11.116;2023-04-15T04:31:16;10.83;;;8.80;;
11203;SDS011;5659;49.408;11.116;2023-04-15T04:33:42;10.90;;;9.33;;
11203;SDS011;5659;49.408;11.116;2023-04-15T04:36:08;10.80;;;8.30;;
11203;SDS011;5659;49.408;11.116;2023-04-15T04:38:34;13.50;;;9.33;;
11203;SDS011;5659;49.408;11.116;2023-04-15T04:41:00;12.67;;;9.60;;
11203;SDS011;5659;49.408;11.116;2023-04-15T04:43:26;10.70;;;9.43;;
11203;SDS011;5659;49.408;11.116;2023-04-15T04:45:52;15.07;;;10.20;;
11203;SDS011;5659;49.408;11.116;2023-04-15T04:48:18;18.00;;;10.40;;
11203;SDS011;5659;49.408;11.116;2023-04-15T04:50:44;12.70;;;9.03;;
11203;SDS011;5659;49.408;11.116;2023-04-15T04:53:11;12.20;;;8.87;;
11203;SDS011;5659;49.408;11.116;2023-04-15T04:55:37;10.77;;;8.20;;
11203;SDS011;5659;49.408;11.116;2023-04-15T04:58:03;9.67;;;8.43;;
11203;SDS011;5659;49.408;11.116;2023-04-15T05:00:29;11.77;;;8.57;;
11203;SDS011;5659;49.408;11.116;2023-04-15T05:02:54;10.03;;;8.43;;
11203;SDS011;5659;49.408;11.116;2023-04-15T05:05:20;12.30;;;8.83;;
11203;SDS011;5659;49.408;11.116;2023-04-15T05:07:46;12.37;;;8.93;;
11203;SDS011;5659;49.408;11.116;2023-04-15T05:10:14;9.33;;;8.37;;
11203;SDS011;5659;49.408;11.116;2023-04-15T05:12:42;9.90;;;8.23;;
11203;SDS011;5659;49.408;11.116;2023-04-15T05:15:08;11.70;;;8.67;;
11203;SDS011;5659;49.408;11.116;2023-04-15T05:17:34;12.73;;;8.07;;
11203;SDS011;5659;49.408;11.116;2023-04-15T05:20:00;11.80;;;9.27;;
11203;SDS011;5659;49.408;11.116;2023-04-15T05:22:27;10.10;;;8.50;;
11203;SDS011;5659;49.408;11.116;2023-04-15T05:24:53;12.00;;;8.27;;
11203;SDS011;5659;49.408;11.116;2023-04-15T05:27:19;9.83;;;7.90;;
11203;SDS011;5659;49.408;11.116;2023-04-15T05:29:47;9.43;;;8.37;;
11203;SDS011;5659;49.408;11.116;2023-04-15T05:32:13;8.90;;;8.00;;
11203;SDS011;5659;49.408;11.116;2023-04-15T05:34:39;9.67;;;8.20;;
11203;SDS011;5659;49.408;11.116;2023-04-15T05:37:05;8.70;;;7.63;;
11203;SDS011;5659;49.408;11.116;2023-04-15T05:39:31;11.57;;;8.07;;
11203;SDS011;5659;49.408;11.116;2023-04-15T05:41:58;8.90;;;8.00;;
11203;SDS011;5659;49.408;11.116;2023-04-15T05:44:24;9.83;;;7.73;;
11203;SDS011;5659;49.408;11.116;2023-04-15T05:46:50;10.60;;;8.50;;
11203;SDS011;5659;49.408;11.116;2023-04-15T05:49:17;8.27;;;7.37;;
11203;SDS011;5659;49.408;11.116;2023-04-15T05:51:43;8.90;;;8.00;;
11203;SDS011;5659;49.408;11.116;2023-04-15T05:54:09;9.87;;;8.03;;
11203;SDS011;5659;49.408;11.116;2023-04-15T05:56:35;12.03;;;8.33;;
11203;SDS011;5659;49.408;11.116;2023-04-15T05:59:01;9.97;;;7.97;;
11203;SDS011;5659;49.408;11.116;2023-04-15T06:01:27;8.83;;;7.70;;
11203;SDS011;5659;49.408;11.116;2023-04-15T06:03:54;9.57;;;7.80;;
11203;SDS011;5659;49.408;11.116;2023-04-15T06:06:20;9.97;;;8.07;;
11203;SDS011;5659;49.408;11.116;2023-04-15T06:08:46;13.23;;;7.93;;
11203;SDS011;5659;49.408;11.116;2023-04-15T06:11:12;9.57;;;8.20;;
11203;SDS011;5659;49.408;11.116;2023-04-15T06:13:38;11.03;;;8.13;;
11203;SDS011;5659;49.408;11.116;2023-04-15T06:16:05;9.43;;;7.97;;
11203;SDS011;5659;49.408;11.116;2023-04-15T06:18:31;10.97;;;8.17;;
11203;SDS011;5659;49.408;11.116;2023-04-15T06:20:56;11.60;;;8.87;;
11203;SDS011;5659;49.408;11.116;2023-04-15T06:23:22;9.17;;;8.20;;
11203;SDS011;5659;49.408;11.116;2023-04-15T06:25:48;10.77;;;9.23;;
11203;SDS011;5659;49.408;11.116;2023-04-15T06:28:15;10.53;;;9.03;;
11203;SDS011;5659;49.408;11.116;2023-04-15T06:30:41;11.63;;;8.90;;
11203;SDS011;5659;49.408;11.116;2023-04-15T06:33:07;10.50;;;9.07;;
11203;SDS011;5659;49.408;11.116;2023-04-15T06:35:34;13.10;;;9.57;;
11203;SDS011;5659;49.408;11.116;2023-04-15T06:38:00;11.77;;;8.83;;
11203;SDS011;5659;49.408;11.116;2023-04-15T06:40:26;10.37;;;8.57;;
11203;SDS011;5659;49.408;11.116;2023-04-15T06:42:52;16.43;;;8.97;;
11203;SDS011;5659;49.408;11.116;2023-04-15T06:45:18;9.57;;;8.57;;
11203;SDS011;5659;49.408;11.116;2023-04-15T06:47:44;9.37;;;8.07;;
11203;SDS011;5659;49.408;11.116;2023-04-15T06:50:10;11.30;;;8.80;;
11203;SDS011;5659;49.408;11.116;2023-04-15T06:52:36;10.73;;;8.43;;
11203;SDS011;5659;49.408;11.116;2023-04-15T06:55:02;10.03;;;8.67;;
11203;SDS011;5659;49.408;11.116;2023-04-15T06:57:29;12.03;;;8.90;;
11203;SDS011;5659;49.408;11.116;2023-04-15T06:59:55;10.13;;;8.40;;
11203;SDS011;5659;49.408;11.116;2023-04-15T07:02:21;11.97;;;9.47;;
11203;SDS011;5659;49.408;11.116;2023-04-15T07:04:47;11.77;;;8.90;;
11203;SDS011;5659;49.408;11.116;2023-04-15T07:07:13;14.23;;;8.30;;
11203;SDS011;5659;49.408;11.116;2023-04-15T07:09:41;11.47;;;7.90;;
11203;SDS011;5659;49.408;11.116;2023-04-15T07:12:07;10.47;;;8.13;;
11203;SDS011;5659;49.408;11.116;2023-04-15T07:14:33;9.30;;;8.20;;
11203;SDS011;5659;49.408;11.116;2023-04-15T07:16:59;9.10;;;8.10;;
11203;SDS011;5659;49.408;11.116;2023-04-15T07:19:25;9.20;;;7.97;;
11203;SDS011;5659;49.408;11.116;2023-04-15T07:21:51;9.77;;;8.80;;
11203;SDS011;5659;49.408;11.116;2023-04-15T07:24:17;12.17;;;8.53;;
11203;SDS011;5659;49.408;11.116;2023-04-15T07:26:44;9.27;;;8.27;;
11203;SDS011;5659;49.408;11.116;2023-04-15T07:29:10;11.97;;;8.37;;
11203;SDS011;5659;49.408;11.116;2023-04-15T07:31:36;10.63;;;8.63;;
11203;SDS011;5659;49.408;11.116;2023-04-15T07:34:02;10.03;;;8.90;;
11203;SDS011;5659;49.408;11.116;2023-04-15T07:36:29;10.67;;;8.70;;
11203;SDS011;5659;49.408;11.116;2023-04-15T07:38:55;10.43;;;8.00;;
11203;SDS011;5659;49.408;11.116;2023-04-15T07:41:22;9.77;;;7.87;;
11203;SDS011;5659;49.408;11.116;2023-04-15T07:43:47;12.10;;;8.67;;
11203;SDS011;5659;49.408;11.116;2023-04-15T07:46:14;9.10;;;8.20;;
11203;SDS011;5659;49.408;11.116;2023-04-15T07:48:40;8.60;;;7.70;;
11203;SDS011;5659;49.408;11.116;2023-04-15T07:51:06;13.07;;;8.20;;
11203;SDS011;5659;49.408;11.116;2023-04-15T07:53:32;6.33;;;5.40;;
11203;SDS011;5659;49.408;11.116;2023-04-15T07:55:58;8.67;;;7.40;;
11203;SDS011;5659;49.408;11.116;2023-04-15T07:58:24;7.37;;;6.47;;
11203;SDS011;5659;49.408;11.116;2023-04-15T08:00:51;9.03;;;5.13;;
11203;SDS011;5659;49.408;11.116;2023-04-15T08:03:19;6.50;;;5.83;;
11203;SDS011;5659;49.408;11.116;2023-04-15T08:05:46;7.27;;;6.13;;
11203;SDS011;5659;49.408;11.116;2023-04-15T08:08:12;6.50;;;5.70;;
11203;SDS011;5659;49.408;11.116;2023-04-15T08:10:38;7.27;;;5.37;;
11203;SDS011;5659;49.408;11.116;2023-04-15T08:13:04;8.47;;;5.63;;
11203;SDS011;5659;49.408;11.116;2023-04-15T08:15:31;6.90;;;5.40;;
11203;SDS011;5659;49.408;11.116;2023-04-15T08:17:57;9.17;;;5.10;;
11203;SDS011;5659;49.408;11.116;2023-04-15T08:20:25;6.17;;;4.87;;
11203;SDS011;5659;49.408;11.116;2023-04-15T08:22:51;5.93;;;5.03;;
11203;SDS011;5659;49.408;11.116;2023-04-15T08:25:17;6.93;;;4.67;;
11203;SDS011;5659;49.408;11.116;2023-04-15T08:27:44;8.93;;;5.17;;
11203;SDS011;5659;49.408;11.116;2023-04-15T08:30:10;9.30;;;4.97;;
11203;SDS011;5659;49.408;11.116;2023-04-15T08:32:37;9.37;;;5.13;;
11203;SDS011;5659;49.408;11.116;2023-04-15T08:35:03;6.30;;;4.90;;
11203;SDS011;5659;49.408;11.116;2023-04-15T08:37:29;5.83;;;4.70;;
11203;SDS011;5659;49.408;11.116;2023-04-15T08:39:55;4.97;;;4.23;;
11203;SDS011;5659;49.408;11.116;2023-04-15T08:42:27;6.23;;;4.10;;
11203;SDS011;5659;49.408;11.116;2023-04-15T08:44:56;5.00;;;3.67;;
11203;SDS011;5659;49.408;11.116;2023-04-15T08:47:23;5.60;;;4.27;;
11203;SDS011;5659;49.408;11.116;2023-04-15T08:49:51;6.17;;;3.93;;
11203;SDS011;5659;49.408;11.116;2023-04-15T08:52:20;4.83;;;2.70;;
11203;SDS011;5659;49.408;11.116;2023-04-15T08:54:46;3.53;;;2.40;;
11203;SDS011;5659;49.408;11.116;2023-04-15T08:57:12;3.90;;;2.63;;
11203;SDS011;5659;49.408;11.116;2023-04-15T08:59:39;3.70;;;2.50;;
11203;SDS011;5659;49.408;11.116;2023-04-15T09:02:06;2.53;;;2.33;;
11203;SDS011;5659;49.408;11.116;2023-04-15T09:04:33;2.03;;;1.93;;
11203;SDS011;5659;49.408;11.116;2023-04-15T09:06:59;3.13;;;1.87;;
11203;SDS011;5659;49.408;11.116;2023-04-15T09:09:25;2.00;;;1.80;;
11203;SDS011;5659;49.408;11.116;2023-04-15T09:11:52;4.23;;;2.00;;
11203;SDS011;5659;49.408;11.116;2023-04-15T09:14:18;3.17;;;1.93;;
11203;SDS011;5659;49.408;11.116;2023-04-15T09:17:00;3.27;;;2.10;;
11203;SDS011;5659;49.408;11.116;2023-04-15T09:21:57;5.60;;;2.20;;
11203;SDS011;5659;49.408;11.116;2023-04-15T09:24:24;2.20;;;2.00;;
11203;SDS011;5659;49.408;11.116;2023-04-15T09:26:51;3.63;;;1.80;;
11203;SDS011;5659;49.408;11.116;2023-04-15T09:29:18;4.47;;;2.07;;
11203;SDS011;5659;49.408;11.116;2023-04-15T09:31:45;3.00;;;2.70;;
11203;SDS011;5659;49.408;11.116;2023-04-15T09:34:11;3.00;;;2.37;;
11203;SDS011;5659;49.408;11.116;2023-04-15T09:36:39;3.80;;;2.67;;
11203;SDS011;5659;49.408;11.116;2023-04-15T09:39:16;3.57;;;3.07;;
11203;SDS011;5659;49.408;11.116;2023-04-15T09:41:42;3.97;;;2.83;;
11203;SDS011;5659;49.408;11.116;2023-04-15T09:44:24;3.40;;;3.10;;
11203;SDS011;5659;49.408;11.116;2023-04-15T09:46:50;3.40;;;3.10;;
11203;SDS011;5659;49.408;11.116;2023-04-15T09:49:16;5.43;;;2.80;;
11203;SDS011;5659;49.408;11.116;2023-04-15T09:51:43;3.20;;;2.90;;
11203;SDS011;5659;49.408;11.116;2023-04-15T09:54:09;3.20;;;2.63;;
11203;SDS011;5659;49.408;11.116;2023-04-15T09:56:35;2.60;;;2.30;;
11203;SDS011;5659;49.408;11.116;2023-04-15T09:59:03;2.60;;;2.33;;
11203;SDS011;5659;49.408;11.116;2023-04-15T10:01:30;4.40;;;2.20;;
11203;SDS011;5659;49.408;11.116;2023-04-15T10:03:56;3.00;;;2.37;;
11203;SDS011;5659;49.408;11.116;2023-04-15T10:06:22;2.90;;;2.50;;
11203;SDS011;5659;49.408;11.116;2023-04-15T10:08:51;3.00;;;2.60;;
11203;SDS011;5659;49.408;11.116;2023-04-15T10:11:17;3.10;;;2.40;;
11203;SDS011;5659;49.408;11.116;2023-04-15T10:13:44;3.77;;;2.97;;
11203;SDS011;5659;49.408;11.116;2023-04-15T10:16:14;6.20;;;2.83;;
11203;SDS011;5659;49.408;11.116;2023-04-15T10:18:50;5.07;;;2.70;;
11203;SDS011;5659;49.408;11.116;2023-04-15T10:21:19;3.17;;;2.63;;
11203;SDS011;5659;49.408;11.116;2023-04-15T10:23:46;4.57;;;2.47;;
11203;SDS011;5659;49.408;11.116;2023-04-15T10:26:13;3.50;;;2.60;;
11203;SDS011;5659;49.408;11.116;2023-04-15T10:28:39;4.07;;;3.20;;
11203;SDS011;5659;49.408;11.116;2023-04-15T10:31:05;9.90;;;2.90;;
11203;SDS011;5659;49.408;11.116;2023-04-15T10:33:32;4.37;;;2.80;;
11203;SDS011;5659;49.408;11.116;2023-04-15T10:35:58;4.07;;;3.07;;
11203;SDS011;5659;49.408;11.116;2023-04-15T10:38:44;3.33;;;2.77;;
11203;SDS011;5659;49.408;11.116;2023-04-15T10:41:17;5.27;;;2.90;;
11203;SDS011;5659;49.408;11.116;2023-04-15T10:43:53;3.40;;;2.97;;
11203;SDS011;5659;49.408;11.116;2023-04-15T10:46:21;3.57;;;2.80;;
11203;SDS011;5659;49.408;11.116;2023-04-15T10:48:51;3.20;;;2.90;;
11203;SDS011;5659;49.408;11.116;2023-04-15T10:51:30;3.17;;;2.80;;
11203;SDS011;5659;49.408;11.116;2023-04-15T10:53:57;3.30;;;3.00;;
11203;SDS011;5659;49.408;11.116;2023-04-15T10:56:24;3.30;;;3.00;;
11203;SDS011;5659;49.408;11.116;2023-04-15T10:58:50;3.70;;;3.40;;
11203;SDS011;5659;49.408;11.116;2023-04-15T11:01:18;5.20;;;2.70;;
11203;SDS011;5659;49.408;11.116;2023-04-15T11:03:44;3.87;;;3.10;;
11203;SDS011;5659;49.408;11.116;2023-04-15T11:06:11;5.57;;;3.00;;
11203;SDS011;5659;49.408;11.116;2023-04-15T11:08:57;3.80;;;2.93;;
11203;SDS011;5659;49.408;11.116;2023-04-15T11:14:09;3.93;;;3.27;;
11203;SDS011;5659;49.408;11.116;2023-04-15T11:16:42;4.90;;;3.27;;
11203;SDS011;5659;49.408;11.116;2023-04-15T11:19:12;4.37;;;2.90;;
11203;SDS011;5659;49.408;11.116;2023-04-15T11:21:38;3.17;;;2.90;;
11203;SDS011;5659;49.408;11.116;2023-04-15T11:24:03;3.33;;;2.90;;
11203;SDS011;5659;49.408;11.116;2023-04-15T11:26:29;2.50;;;2.30;;
11203;SDS011;5659;49.408;11.116;2023-04-15T11:28:56;3.83;;;2.80;;
11203;SDS011;5659;49.408;11.116;2023-04-15T11:31:25;2.70;;;2.50;;
11203;SDS011;5659;49.408;11.116;2023-04-15T11:33:56;2.87;;;2.50;;
11203;SDS011;5659;49.408;11.116;2023-04-15T11:36:23;4.77;;;2.70;;
11203;SDS011;5659;49.408;11.116;2023-04-15T11:38:51;4.30;;;2.97;;
11203;SDS011;5659;49.408;11.116;2023-04-15T11:41:23;4.63;;;3.57;;
11203;SDS011;5659;49.408;11.116;2023-04-15T11:43:50;4.60;;;3.40;;
11203;SDS011;5659;49.408;11.116;2023-04-15T11:46:16;3.53;;;3.03;;
11203;SDS011;5659;49.408;11.116;2023-04-15T11:48:43;5.73;;;3.43;;
11203;SDS011;5659;49.408;11.116;2023-04-15T11:51:10;4.13;;;3.50;;
11203;SDS011;5659;49.408;11.116;2023-04-15T11:53:46;4.10;;;3.70;;
11203;SDS011;5659;49.408;11.116;2023-04-15T11:56:22;5.10;;;3.63;;
11203;SDS011;5659;49.408;11.116;2023-04-15T11:58:52;4.27;;;3.00;;
11203;SDS011;5659;49.408;11.116;2023-04-15T12:01:18;4.87;;;2.97;;
11203;SDS011;5659;49.408;11.116;2023-04-15T12:03:45;3.77;;;3.37;;
11203;SDS011;5659;49.408;11.116;2023-04-15T12:06:15;4.20;;;3.17;;
11203;SDS011;5659;49.408;11.116;2023-04-15T12:13:54;3.57;;;2.70;;
11203;SDS011;5659;49.408;11.116;2023-04-15T12:16:21;2.90;;;2.70;;
11203;SDS011;5659;49.408;11.116;2023-04-15T12:18:51;3.10;;;2.80;;
11203;SDS011;5659;49.408;11.116;2023-04-15T12:21:21;2.90;;;2.70;;
11203;SDS011;5659;49.408;11.116;2023-04-15T12:23:51;3.20;;;2.90;;
11203;SDS011;5659;49.408;11.116;2023-04-15T12:26:17;2.80;;;2.60;;
11203;SDS011;5659;49.408;11.116;2023-04-15T12:28:44;2.77;;;2.43;;
11203;SDS011;5659;49.408;11.116;2023-04-15T12:31:11;4.40;;;4.00;;
11203;SDS011;5659;49.408;11.116;2023-04-15T12:33:37;4.23;;;3.70;;
11203;SDS011;5659;49.408;11.116;2023-04-15T12:36:04;3.33;;;3.03;;
11203;SDS011;5659;49.408;11.116;2023-04-15T12:38:30;3.40;;;2.30;;
11203;SDS011;5659;49.408;11.116;2023-04-15T12:40:57;3.17;;;2.60;;
11203;SDS011;5659;49.408;11.116;2023-04-15T12:43:23;2.67;;;2.47;;
11203;SDS011;5659;49.408;11.116;2023-04-15T12:45:49;2.70;;;2.13;;
11203;SDS011;5659;49.408;11.116;2023-04-15T12:48:15;2.53;;;2.00;;
11203;SDS011;5659;49.408;11.116;2023-04-15T12:50:41;2.70;;;2.30;;
11203;SDS011;5659;49.408;11.116;2023-04-15T12:53:07;2.30;;;2.10;;
11203;SDS011;5659;49.408;11.116;2023-04-15T12:55:33;2.90;;;2.10;;
11203;SDS011;5659;49.408;11.116;2023-04-15T12:57:59;4.10;;;2.30;;
11203;SDS011;5659;49.408;11.116;2023-04-15T13:00:25;2.33;;;2.10;;
11203;SDS011;5659;49.408;11.116;2023-04-15T13:02:51;2.53;;;2.33;;
11203;SDS011;5659;49.408;11.116;2023-04-15T13:05:18;2.67;;;2.47;;
11203;SDS011;5659;49.408;11.116;2023-04-15T13:07:44;2.50;;;2.30;;
11203;SDS011;5659;49.408;11.116;2023-04-15T13:10:11;3.73;;;2.50;;
11203;SDS011;5659;49.408;11.116;2023-04-15T13:12:36;2.90;;;2.60;;
11203;SDS011;5659;49.408;11.116;2023-04-15T13:15:03;2.30;;;2.10;;
11203;SDS011;5659;49.408;11.116;2023-04-15T13:17:29;2.47;;;2.27;;
11203;SDS011;5659;49.408;11.116;2023-04-15T13:19:55;2.50;;;2.30;;
11203;SDS011;5659;49.408;11.116;2023-04-15T13:22:21;2.30;;;2.10;;
11203;SDS011;5659;49.408;11.116;2023-04-15T13:24:47;3.40;;;2.73;;
11203;SDS011;5659;49.408;11.116;2023-04-15T13:27:13;2.93;;;2.43;;
11203;SDS011;5659;49.408;11.116;2023-04-15T13:29:39;3.22;;;2.47;;
11203;SDS011;5659;49.408;11.116;2023-04-15T13:32:05;2.37;;;2.17;;
11203;SDS011;5659;49.408;11.116;2023-04-15T13:34:31;3.67;;;2.60;;
11203;SDS011;5659;49.408;11.116;2023-04-15T13:36:58;2.57;;;2.37;;
11203;SDS011;5659;49.408;11.116;2023-04-15T13:39:23;2.47;;;2.13;;
11203;SDS011;5659;49.408;11.116;2023-04-15T13:41:50;3.20;;;2.00;;
11203;SDS011;5659;49.408;11.116;2023-04-15T13:44:16;2.90;;;1.80;;
11203;SDS011;5659;49.408;11.116;2023-04-15T13:46:42;2.30;;;2.10;;
11203;SDS011;5659;49.408;11.116;2023-04-15T13:49:08;3.70;;;1.97;;
11203;SDS011;5659;49.408;11.116;2023-04-15T13:51:34;2.40;;;2.20;;
11203;SDS011;5659;49.408;11.116;2023-04-15T13:54:00;2.20;;;1.90;;
11203;SDS011;5659;49.408;11.116;2023-04-15T13:56:27;2.50;;;2.30;;
11203;SDS011;5659;49.408;11.116;2023-04-15T13:58:53;2.50;;;2.30;;
11203;SDS011;5659;49.408;11.116;2023-04-15T14:01:22;2.37;;;2.17;;
11203;SDS011;5659;49.408;11.116;2023-04-15T14:03:48;2.50;;;2.30;;
11203;SDS011;5659;49.408;11.116;2023-04-15T14:06:15;2.40;;;2.20;;
11203;SDS011;5659;49.408;11.116;2023-04-15T14:08:41;2.60;;;2.27;;
11203;SDS011;5659;49.408;11.116;2023-04-15T14:11:07;2.43;;;2.23;;
11203;SDS011;5659;49.408;11.116;2023-04-15T14:13:33;2.30;;;2.10;;
11203;SDS011;5659;49.408;11.116;2023-04-15T14:15:59;2.13;;;2.00;;
11203;SDS011;5659;49.408;11.116;2023-04-15T14:18:25;3.53;;;2.27;;
11203;SDS011;5659;49.408;11.116;2023-04-15T14:20:51;3.00;;;2.70;;
11203;SDS011;5659;49.408;11.116;2023-04-15T14:23:17;5.07;;;2.60;;
11203;SDS011;5659;49.408;11.116;2023-04-15T14:25:43;3.90;;;3.00;;
11203;SDS011;5659;49.408;11.116;2023-04-15T14:28:09;5.73;;;2.30;;
11203;SDS011;5659;49.408;11.116;2023-04-15T14:30:35;4.73;;;2.57;;
11203;SDS011;5659;49.408;11.116;2023-04-15T14:33:01;2.97;;;2.67;;
11203;SDS011;5659;49.408;11.116;2023-04-15T14:35:27;2.87;;;2.60;;
11203;SDS011;5659;49.408;11.116;2023-04-15T14:37:53;2.60;;;2.30;;
11203;SDS011;5659;49.408;11.116;2023-04-15T14:40:19;2.77;;;2.47;;
11203;SDS011;5659;49.408;11.116;2023-04-15T14:42:45;2.47;;;2.27;;
11203;SDS011;5659;49.408;11.116;2023-04-15T14:45:11;3.00;;;2.67;;